Time;durP1;ratioP1;P1;durP2;ratioP2;P2;SDS_P1;SDS_P2;PMS_P1;PMS_P2;Temp;Humidity;BMP_temperature;BMP_pressure;BME280_temperature;BME280_humidity;BME280_pressure;Samples;Min_cycle;Max_cycle;Signal;HPM_P1;HPM_P2
2023/07/28 00:01:09;;;;;;;4.38;1.10;;;;;;;20.95;99.58;100081.38;7365462;19;20014;-62
2023/07/28 00:03:36;;;;;;;3.28;1.40;;;;;;;20.95;99.68;100089.41;7363036;19;20601;-63
2023/07/28 00:06:03;;;;;;;3.70;0.90;;;;;;;20.93;98.55;100084.28;7362216;19;20048;-62
2023/07/28 00:08:30;;;;;;;3.25;1.00;;;;;;;20.93;97.46;100090.47;7361212;19;20032;-63
2023/07/28 00:10:57;;;;;;;3.97;0.73;;;;;;;20.89;97.25;100088.50;7357467;19;20014;-62
2023/07/28 00:13:25;;;;;;;2.17;0.82;;;;;;;20.85;96.92;100079.34;7359945;19;20135;-62
2023/07/28 00:15:51;;;;;;;2.20;0.63;;;;;;;20.81;96.55;100084.34;7361196;19;21690;-62
2023/07/28 00:18:21;;;;;;;1.33;0.50;;;;;;;20.77;95.32;100077.88;7362496;19;20029;-61
2023/07/28 00:20:48;;;;;;;1.73;0.50;;;;;;;20.74;94.81;100086.34;7363978;19;20018;-62
2023/07/28 00:23:15;;;;;;;1.00;0.40;;;;;;;20.69;94.36;100083.56;7362135;19;20352;-61
2023/07/28 00:25:42;;;;;;;0.85;0.40;;;;;;;20.64;94.20;100090.66;7360095;19;20750;-62
2023/07/28 00:28:09;;;;;;;1.92;0.47;;;;;;;20.60;95.06;100090.34;7363710;19;20082;-64
2023/07/28 00:30:36;;;;;;;1.92;0.60;;;;;;;20.59;94.43;100083.38;7363024;19;20018;-62
2023/07/28 00:33:03;;;;;;;3.40;0.50;;;;;;;20.59;94.25;100074.53;7360323;19;20169;-61
2023/07/28 00:35:30;;;;;;;1.80;0.35;;;;;;;20.57;94.22;100082.00;7363124;19;20038;-61
2023/07/28 00:37:57;;;;;;;2.92;0.47;;;;;;;20.58;94.77;100081.72;7361448;19;20010;-61
2023/07/28 00:40:24;;;;;;;1.52;0.80;;;;;;;20.55;94.53;100076.88;7359799;19;20019;-62
2023/07/28 00:42:51;;;;;;;2.80;0.40;;;;;;;20.53;94.32;100083.50;7360336;19;20467;-63
2023/07/28 00:45:18;;;;;;;2.03;0.50;;;;;;;20.49;93.78;100083.16;7359189;19;20569;-62
2023/07/28 00:47:46;;;;;;;1.38;0.40;;;;;;;20.47;94.77;100080.72;7360950;19;20587;-63
2023/07/28 00:50:13;;;;;;;0.98;0.40;;;;;;;20.42;94.52;100088.63;7361361;19;20044;-63
2023/07/28 00:52:40;;;;;;;0.73;0.40;;;;;;;20.40;94.07;100085.38;7360541;19;20677;-63
2023/07/28 00:55:08;;;;;;;1.17;0.50;;;;;;;20.39;94.52;100090.97;7355226;19;20027;-65
2023/07/28 00:57:35;;;;;;;0.85;0.30;;;;;;;20.37;94.89;100091.19;7362680;19;20023;-61
2023/07/28 01:00:02;;;;;;;3.13;1.02;;;;;;;20.34;94.60;100097.03;7359658;19;20367;-63
2023/07/28 01:02:29;;;;;;;1.48;0.50;;;;;;;20.33;95.23;100094.56;7360610;19;20013;-63
2023/07/28 01:04:56;;;;;;;2.58;0.40;;;;;;;20.29;94.29;100086.19;7360938;19;20058;-62
2023/07/28 01:07:40;;;;;;;2.22;0.50;;;;;;;20.28;94.18;100091.75;7362311;19;21869;-62
2023/07/28 01:10:12;;;;;;;0.70;0.30;;;;;;;20.28;94.58;100095.25;7356175;19;20522;-61
2023/07/28 01:12:40;;;;;;;2.03;0.40;;;;;;;20.27;94.31;100095.47;7362954;19;20017;-63
2023/07/28 01:15:07;;;;;;;1.45;0.60;;;;;;;20.24;94.26;100083.41;7361465;19;21781;-61
2023/07/28 01:17:35;;;;;;;1.60;0.40;;;;;;;20.23;94.40;100091.66;7362823;19;20060;-62
2023/07/28 01:20:03;;;;;;;1.38;0.30;;;;;;;20.21;94.28;100088.41;7361006;19;20018;-64
2023/07/28 01:22:45;;;;;;;1.40;0.30;;;;;;;20.19;94.43;100093.16;7363387;19;20959;-61
2023/07/28 01:25:38;;;;;;;0.82;0.40;;;;;;;20.15;94.31;100092.00;7353246;19;20051;-65
2023/07/28 01:28:06;;;;;;;2.33;0.40;;;;;;;20.11;94.42;100085.50;7359909;19;20018;-62
2023/07/28 01:30:33;;;;;;;1.75;0.30;;;;;;;20.08;94.13;100089.44;7360084;19;20015;-62
2023/07/28 01:33:00;;;;;;;1.70;0.30;;;;;;;20.07;93.72;100093.16;7361932;19;20042;-61
2023/07/28 01:35:27;;;;;;;1.83;0.30;;;;;;;20.08;94.23;100098.28;7359919;19;20023;-62
2023/07/28 01:37:55;;;;;;;1.15;0.30;;;;;;;20.08;94.35;100102.81;7359771;19;20051;-62
2023/07/28 01:40:21;;;;;;;0.70;0.30;;;;;;;20.09;94.04;100101.78;7357103;19;20022;-62
2023/07/28 01:42:49;;;;;;;1.45;0.30;;;;;;;20.07;94.28;100102.00;7361829;19;20621;-62
2023/07/28 01:45:16;;;;;;;1.33;0.80;;;;;;;20.06;94.30;100097.69;7362194;19;20022;-61
2023/07/28 01:47:43;;;;;;;1.20;0.30;;;;;;;20.08;95.03;100100.94;7362024;19;20014;-62
2023/07/28 01:50:10;;;;;;;1.70;0.40;;;;;;;20.06;95.24;100108.38;7361233;19;20014;-62
2023/07/28 01:52:37;;;;;;;1.35;0.40;;;;;;;20.05;94.63;100103.28;7361856;19;20010;-63
2023/07/28 01:55:06;;;;;;;0.98;0.40;;;;;;;20.07;93.97;100103.84;7353563;19;20022;-61
2023/07/28 01:57:33;;;;;;;2.03;0.40;;;;;;;20.07;94.29;100106.53;7356429;19;20035;-61
2023/07/28 02:00:03;;;;;;;0.73;0.30;;;;;;;20.06;93.95;100107.59;7357684;19;20082;-61
2023/07/28 02:02:30;;;;;;;0.98;0.30;;;;;;;20.06;94.31;100103.03;7359644;19;20086;-63
2023/07/28 02:04:57;;;;;;;1.05;0.40;;;;;;;20.06;94.03;100100.34;7358760;19;20022;-61
2023/07/28 02:07:24;;;;;;;0.90;0.30;;;;;;;20.02;93.83;100093.03;7355019;19;20437;-62
2023/07/28 02:09:51;;;;;;;2.72;0.30;;;;;;;20.02;93.45;100098.38;7357245;19;20029;-62
2023/07/28 02:12:18;;;;;;;0.77;0.30;;;;;;;19.97;93.69;100096.41;7359993;19;20026;-63
2023/07/28 02:14:45;;;;;;;0.68;0.38;;;;;;;19.97;94.06;100092.94;7358564;19;20047;-62
2023/07/28 02:17:12;;;;;;;4.13;0.77;;;;;;;20.00;94.59;100101.31;7360236;19;20053;-63
2023/07/28 02:19:39;;;;;;;1.77;0.30;;;;;;;19.99;93.87;100093.53;7360125;19;20089;-61
2023/07/28 02:28:12;;;;;;;1.95;0.30;;;;;;;19.91;94.18;100085.88;7354749;19;20437;-62
2023/07/28 02:30:39;;;;;;;1.42;0.30;;;;;;;19.87;94.07;100085.50;7354587;19;20077;-63
2023/07/28 02:33:06;;;;;;;2.38;0.40;;;;;;;19.84;94.39;100083.31;7365218;19;20007;-62
2023/07/28 02:35:34;;;;;;;0.70;0.22;;;;;;;19.84;94.42;100095.84;7366232;19;20612;-61
2023/07/28 02:38:02;;;;;;;2.17;0.30;;;;;;;19.79;94.74;100085.84;7364548;19;20422;-61
2023/07/28 02:40:29;;;;;;;1.73;0.40;;;;;;;19.79;94.24;100098.41;7361473;19;20058;-63
2023/07/28 02:42:56;;;;;;;1.90;0.40;;;;;;;19.77;94.43;100087.94;7359554;19;20089;-66
2023/07/28 02:45:24;;;;;;;1.75;0.35;;;;;;;19.75;94.98;100095.38;7364550;19;20011;-65
2023/07/28 02:47:51;;;;;;;1.40;0.43;;;;;;;19.73;94.83;100094.78;7367667;19;20633;-66
2023/07/28 02:50:19;;;;;;;1.05;0.30;;;;;;;19.72;94.62;100100.34;7364430;19;20023;-66
2023/07/28 02:52:46;;;;;;;0.73;0.20;;;;;;;19.71;94.63;100091.53;7364870;19;20098;-66
2023/07/28 02:55:13;;;;;;;0.80;0.30;;;;;;;19.70;94.89;100103.28;7358786;19;20023;-66
2023/07/28 02:57:40;;;;;;;0.63;0.20;;;;;;;19.70;94.24;100095.25;7363518;19;20035;-67
2023/07/28 03:00:10;;;;;;;2.47;1.10;;;;;;;19.70;94.79;100087.25;7362121;19;20816;-67
2023/07/28 03:02:37;;;;;;;0.50;0.20;;;;;;;19.71;94.45;100085.41;7364877;19;20023;-64
2023/07/28 03:05:05;;;;;;;1.70;0.30;;;;;;;19.71;94.14;100086.19;7362616;19;21172;-64
2023/07/28 03:07:32;;;;;;;0.98;0.22;;;;;;;19.71;94.11;100080.84;7364803;19;20018;-65
2023/07/28 03:09:59;;;;;;;1.35;0.20;;;;;;;19.70;93.95;100089.91;7359210;19;20495;-64
2023/07/28 03:12:26;;;;;;;0.93;0.30;;;;;;;19.69;93.45;100085.63;7363834;19;20018;-65
2023/07/28 03:14:53;;;;;;;1.05;0.22;;;;;;;19.70;93.67;100092.59;7362141;19;21004;-65
2023/07/28 03:17:20;;;;;;;1.00;0.10;;;;;;;19.69;93.34;100087.47;7364925;19;20056;-64
2023/07/28 03:19:47;;;;;;;0.30;0.10;;;;;;;19.66;92.47;100091.41;7363115;19;20661;-65
2023/07/28 03:22:14;;;;;;;0.38;0.13;;;;;;;19.63;92.57;100089.19;7364213;19;20035;-64
2023/07/28 03:24:42;;;;;;;0.55;0.10;;;;;;;19.62;92.25;100090.25;7361464;19;20039;-64
2023/07/28 03:27:09;;;;;;;0.60;0.20;;;;;;;19.62;91.76;100095.56;7360943;19;20006;-65
2023/07/28 03:29:36;;;;;;;0.68;0.20;;;;;;;19.61;91.66;100107.28;7365964;19;20014;-65
2023/07/28 03:32:03;;;;;;;1.05;0.10;;;;;;;19.60;91.74;100106.50;7366559;19;20028;-65
2023/07/28 03:34:30;;;;;;;0.70;0.10;;;;;;;19.56;91.31;100107.16;7362788;19;20554;-66
2023/07/28 03:36:57;;;;;;;0.85;0.10;;;;;;;19.54;91.35;100112.75;7362806;19;20083;-64
2023/07/28 03:39:24;;;;;;;1.23;0.10;;;;;;;19.54;92.19;100106.59;7358395;19;20767;-64
2023/07/28 03:41:51;;;;;;;0.25;0.13;;;;;;;19.55;91.57;100108.22;7361544;19;20010;-67
2023/07/28 03:44:19;;;;;;;0.30;0.10;;;;;;;19.56;91.83;100107.16;7361921;19;20019;-68
2023/07/28 03:46:46;;;;;;;0.77;0.10;;;;;;;19.60;92.12;100108.34;7365789;19;20014;-64
2023/07/28 03:49:13;;;;;;;0.85;0.10;;;;;;;19.58;91.16;100105.09;7364257;19;20024;-64
2023/07/28 03:51:40;;;;;;;0.40;0.10;;;;;;;19.59;90.64;100112.06;7364558;19;20030;-64
2023/07/28 03:54:08;;;;;;;0.55;0.10;;;;;;;19.59;90.87;100106.72;7358906;19;20306;-65
2023/07/28 03:56:35;;;;;;;1.08;0.10;;;;;;;19.60;90.92;100097.69;7361993;19;20292;-66
2023/07/28 03:59:02;;;;;;;2.45;0.15;;;;;;;19.62;91.31;100103.59;7358509;19;20259;-66
2023/07/28 04:01:30;;;;;;;1.60;0.10;;;;;;;19.61;91.34;100107.28;7365383;19;20025;-66
2023/07/28 04:03:58;;;;;;;0.28;0.10;;;;;;;19.59;90.77;100102.19;7361834;19;20035;-66
2023/07/28 04:06:53;;;;;;;0.82;0.10;;;;;;;19.53;90.44;100107.63;7367776;19;20610;-67
2023/07/28 04:09:21;;;;;;;1.55;0.10;;;;;;;19.50;91.07;100103.59;7357576;19;20010;-66
2023/07/28 04:11:48;;;;;;;0.40;0.13;;;;;;;19.49;90.58;100101.94;7363402;19;20086;-64
2023/07/28 04:14:15;;;;;;;0.50;0.10;;;;;;;19.53;91.04;100104.97;7359016;19;20014;-65
2023/07/28 04:16:42;;;;;;;0.28;0.10;;;;;;;19.55;90.88;100108.22;7361467;19;21340;-65
2023/07/28 04:19:09;;;;;;;2.17;0.10;;;;;;;19.50;90.57;100103.59;7362887;19;20030;-65
2023/07/28 04:21:39;;;;;;;1.08;0.10;;;;;;;19.48;89.77;100111.00;7361651;19;20010;-65
2023/07/28 04:24:09;;;;;;;0.40;0.10;;;;;;;19.49;90.04;100112.63;7359287;19;20026;-65
2023/07/28 04:26:36;;;;;;;0.80;0.10;;;;;;;19.51;90.28;100112.38;7363122;19;20035;-64
2023/07/28 04:29:03;;;;;;;0.35;0.10;;;;;;;19.53;90.87;100121.81;7360480;19;20026;-65
2023/07/28 04:31:30;;;;;;;1.15;0.10;;;;;;;19.54;90.67;100115.44;7362918;19;20022;-65
2023/07/28 04:33:57;;;;;;;1.77;0.20;;;;;;;19.53;90.07;100120.97;7359473;19;20010;-64
2023/07/28 04:36:31;;;;;;;1.67;0.10;;;;;;;19.50;89.73;100122.28;7364717;19;21043;-65
2023/07/28 04:38:58;;;;;;;0.45;0.10;;;;;;;19.51;90.13;100125.72;7357326;19;20030;-64
2023/07/28 04:41:25;;;;;;;0.20;0.10;;;;;;;19.49;90.40;100125.97;7361116;19;20592;-64
2023/07/28 04:43:53;;;;;;;0.30;0.10;;;;;;;19.49;90.90;100127.81;7363237;19;20617;-64
2023/07/28 04:46:20;;;;;;;0.30;0.10;;;;;;;19.51;90.48;100133.72;7362926;19;20011;-64
2023/07/28 04:48:47;;;;;;;0.75;0.15;;;;;;;19.45;89.59;100124.81;7360229;19;20012;-64
2023/07/28 04:51:14;;;;;;;0.50;0.10;;;;;;;19.42;89.56;100133.22;7360209;19;20015;-65
2023/07/28 04:53:41;;;;;;;0.20;0.10;;;;;;;19.42;89.95;100133.22;7362182;19;20014;-65
2023/07/28 04:56:08;;;;;;;0.73;0.10;;;;;;;19.45;90.46;100134.66;7357054;19;20024;-65
2023/07/28 04:58:35;;;;;;;0.20;0.08;;;;;;;19.45;89.83;100137.34;7356920;19;20049;-64
2023/07/28 05:01:03;;;;;;;0.40;0.10;;;;;;;19.45;89.65;100134.66;7359883;19;20053;-66
2023/07/28 05:03:30;;;;;;;1.17;0.10;;;;;;;19.46;90.10;100123.75;7358322;19;20253;-64
2023/07/28 05:05:57;;;;;;;0.30;0.00;;;;;;;19.45;89.31;100132.00;7361958;19;20033;-65
2023/07/28 05:08:24;;;;;;;0.20;0.00;;;;;;;19.45;89.20;100126.66;7360671;19;20018;-65
2023/07/28 05:10:51;;;;;;;0.20;0.00;;;;;;;19.45;89.67;100137.34;7360342;19;20037;-65
2023/07/28 05:13:18;;;;;;;0.93;0.00;;;;;;;19.44;89.38;100136.53;7363499;19;20441;-65
2023/07/28 05:15:45;;;;;;;0.52;0.00;;;;;;;19.45;89.22;100143.50;7358447;19;20015;-65
2023/07/28 05:18:12;;;;;;;0.10;0.00;;;;;;;19.46;89.00;100137.09;7362658;19;20026;-65
2023/07/28 05:20:39;;;;;;;0.30;0.03;;;;;;;19.43;88.16;100136.72;7362356;19;20026;-64
2023/07/28 05:23:06;;;;;;;1.13;0.03;;;;;;;19.40;88.24;100126.50;7361698;19;20058;-64
2023/07/28 05:25:33;;;;;;;0.03;0.00;;;;;;;19.41;88.30;100136.91;7356106;19;20047;-65
2023/07/28 05:28:00;;;;;;;0.95;0.00;;;;;;;19.43;88.59;100142.03;7359843;19;20883;-66
2023/07/28 05:30:27;;;;;;;1.25;0.10;;;;;;;19.42;88.33;100140.41;7359919;19;20570;-64
2023/07/28 05:32:57;;;;;;;0.20;0.00;;;;;;;19.44;88.52;100146.34;7357752;19;20014;-66
2023/07/28 05:35:24;;;;;;;0.38;0.00;;;;;;;19.44;87.80;100138.34;7360053;19;20015;-67
2023/07/28 05:37:51;;;;;;;0.05;0.00;;;;;;;19.43;88.03;100139.38;7360593;19;20010;-64
2023/07/28 05:40:18;;;;;;;0.35;0.10;;;;;;;19.44;87.73;100141.84;7356665;19;20941;-65
2023/07/28 05:42:45;;;;;;;0.10;0.00;;;;;;;19.47;87.81;100146.72;7359637;19;20683;-64
2023/07/28 05:45:12;;;;;;;0.20;0.00;;;;;;;19.45;87.76;100140.00;7359989;19;20023;-66
2023/07/28 05:47:39;;;;;;;0.20;0.00;;;;;;;19.44;87.93;100146.34;7361057;19;20105;-65
2023/07/28 05:50:07;;;;;;;0.30;0.00;;;;;;;19.44;88.06;100155.19;7361662;19;20014;-65
2023/07/28 05:52:34;;;;;;;0.45;0.00;;;;;;;19.45;87.27;100148.00;7359507;19;20018;-65
2023/07/28 05:55:01;;;;;;;0.10;0.00;;;;;;;19.46;88.45;100154.94;7353854;19;20014;-64
2023/07/28 05:57:28;;;;;;;0.13;0.10;;;;;;;19.46;87.42;100154.94;7361201;19;20018;-67
2023/07/28 05:59:55;;;;;;;1.13;0.00;;;;;;;19.47;87.49;100165.41;7357264;19;20149;-67
2023/07/28 06:02:22;;;;;;;0.30;0.10;;;;;;;19.47;87.64;100157.41;7361910;19;20018;-66
2023/07/28 06:04:49;;;;;;;3.15;0.10;;;;;;;19.46;87.70;100158.44;7357927;19;20018;-66
2023/07/28 06:07:17;;;;;;;0.60;0.03;;;;;;;19.42;87.25;100154.56;7354833;19;20026;-65
2023/07/28 06:09:44;;;;;;;1.13;0.10;;;;;;;19.42;87.50;100153.75;7355357;19;20023;-66
2023/07/28 06:12:11;;;;;;;1.38;0.10;;;;;;;19.41;88.05;100155.59;7358063;19;20684;-64
2023/07/28 06:14:38;;;;;;;0.50;0.10;;;;;;;19.44;88.39;100163.19;7358733;19;20018;-66
2023/07/28 06:17:05;;;;;;;0.70;0.10;;;;;;;19.45;88.92;100166.69;7358417;19;20889;-65
2023/07/28 06:19:32;;;;;;;0.30;0.00;;;;;;;19.46;89.07;100162.97;7360926;19;20018;-65
2023/07/28 06:22:01;;;;;;;0.90;0.10;;;;;;;19.45;89.07;100166.69;7361183;19;20528;-65
2023/07/28 06:24:30;;;;;;;1.10;0.10;;;;;;;19.46;89.42;100158.44;7353191;19;20011;-68
2023/07/28 06:26:57;;;;;;;2.95;0.10;;;;;;;19.45;88.65;100164.84;7358252;19;20026;-64
2023/07/28 06:29:24;;;;;;;0.45;0.10;;;;;;;19.45;88.18;100164.03;7357286;19;20622;-67
2023/07/28 06:31:51;;;;;;;1.38;0.10;;;;;;;19.40;88.04;100158.53;7360573;19;21556;-65
2023/07/28 06:34:18;;;;;;;0.73;0.10;;;;;;;19.33;87.73;100155.94;7357409;19;20113;-66
2023/07/28 06:36:45;;;;;;;1.02;0.10;;;;;;;19.35;88.48;100163.72;7359658;19;20038;-67
2023/07/28 06:39:12;;;;;;;1.40;0.10;;;;;;;19.37;89.17;100161.63;7352787;19;20027;-66
2023/07/28 06:41:39;;;;;;;0.38;0.10;;;;;;;19.40;87.89;100159.31;7357922;19;20086;-65
2023/07/28 06:44:08;;;;;;;1.27;0.10;;;;;;;19.45;87.70;100159.50;7357401;19;20724;-65
2023/07/28 06:46:36;;;;;;;0.25;0.00;;;;;;;19.46;87.99;100163.78;7357489;19;20479;-64
2023/07/28 06:49:03;;;;;;;0.38;0.10;;;;;;;19.48;87.90;100164.38;7357367;19;20034;-65
2023/07/28 06:51:30;;;;;;;0.30;0.17;;;;;;;19.49;88.20;100162.53;7358381;19;20699;-66
2023/07/28 06:53:57;;;;;;;0.75;0.20;;;;;;;19.46;88.36;100161.09;7353249;19;20035;-66
2023/07/28 06:56:32;;;;;;;0.52;0.20;;;;;;;19.46;88.25;100168.28;7359493;19;20025;-65
2023/07/28 06:59:00;;;;;;;0.30;0.13;;;;;;;19.47;88.14;100173.41;7352832;19;20047;-66
2023/07/28 07:01:41;;;;;;;1.20;0.30;;;;;;;19.48;88.36;100172.38;7358599;19;20640;-65
2023/07/28 07:04:08;;;;;;;0.43;0.13;;;;;;;19.50;88.38;100180.16;7358562;19;20081;-67
2023/07/28 07:06:35;;;;;;;0.43;0.10;;;;;;;19.51;88.56;100184.44;7359862;19;20022;-66
2023/07/28 07:09:03;;;;;;;0.40;0.08;;;;;;;19.46;88.01;100184.31;7354160;19;20018;-67
2023/07/28 07:11:31;;;;;;;0.47;0.10;;;;;;;19.46;88.11;100181.63;7356906;19;20014;-66
2023/07/28 07:13:59;;;;;;;2.15;0.38;;;;;;;19.48;88.00;100179.56;7355155;19;20022;-66
2023/07/28 07:16:36;;;;;;;0.47;0.10;;;;;;;19.50;88.27;100182.84;7356082;19;20109;-65
2023/07/28 07:19:03;;;;;;;0.20;0.00;;;;;;;19.51;88.16;100187.94;7362488;19;20194;-65
2023/07/28 07:21:31;;;;;;;0.20;0.10;;;;;;;19.54;87.43;100184.00;7364105;19;20022;-66
2023/07/28 07:23:58;;;;;;;0.60;0.10;;;;;;;19.59;87.67;100192.16;7359847;19;20058;-66
2023/07/28 07:26:31;;;;;;;2.15;0.20;;;;;;;19.61;88.00;100192.72;7366228;19;20723;-65
2023/07/28 07:28:59;;;;;;;2.83;0.20;;;;;;;19.61;87.46;100193.53;7361554;19;20010;-65
2023/07/28 07:31:26;;;;;;;0.50;0.10;;;;;;;19.62;87.41;100202.34;7363177;19;20073;-65
2023/07/28 07:33:53;;;;;;;1.23;0.10;;;;;;;19.63;87.34;100194.13;7364999;19;20041;-66
2023/07/28 07:36:20;;;;;;;0.73;0.30;;;;;;;19.67;88.25;100201.66;7363523;19;20006;-67
2023/07/28 07:38:47;;;;;;;0.47;0.20;;;;;;;19.72;88.38;100202.63;7354978;19;20018;-64
2023/07/28 07:41:21;;;;;;;0.73;0.10;;;;;;;19.73;87.87;100200.75;7361973;19;20086;-64
2023/07/28 07:43:49;;;;;;;2.28;0.20;;;;;;;19.74;87.81;100199.72;7359086;19;20015;-64
2023/07/28 07:46:16;;;;;;;0.43;0.10;;;;;;;19.76;87.40;100205.66;7362521;19;20097;-64
2023/07/28 07:48:43;;;;;;;2.42;0.15;;;;;;;19.79;87.08;100202.53;7361906;19;20015;-65
2023/07/28 07:51:11;;;;;;;0.30;0.10;;;;;;;19.79;86.91;100199.88;7364422;19;20042;-67
2023/07/28 07:53:38;;;;;;;1.63;0.10;;;;;;;19.77;86.21;100200.09;7363207;19;20110;-66
2023/07/28 07:56:07;;;;;;;0.50;0.10;;;;;;;19.78;86.17;100195.56;7358774;19;20701;-65
2023/07/28 07:58:34;;;;;;;1.00;0.20;;;;;;;19.81;86.25;100201.25;7364579;19;20641;-67
2023/07/28 08:01:02;;;;;;;1.30;0.10;;;;;;;19.87;85.87;100191.50;7360162;19;20073;-66
2023/07/28 08:03:30;;;;;;;0.50;0.10;;;;;;;19.89;85.42;100192.91;7356904;19;20019;-66
2023/07/28 08:05:57;;;;;;;1.33;0.10;;;;;;;19.86;84.99;100190.69;7359196;19;20018;-65
2023/07/28 08:08:26;;;;;;;0.93;0.20;;;;;;;19.82;84.69;100200.22;7363425;19;21699;-64
2023/07/28 08:10:54;;;;;;;0.30;0.10;;;;;;;19.77;84.50;100196.59;7358030;19;20023;-65
2023/07/28 08:13:22;;;;;;;0.88;0.10;;;;;;;19.80;84.82;100199.63;7360617;19;20018;-64
2023/07/28 08:15:49;;;;;;;1.02;0.13;;;;;;;19.81;85.14;100203.13;7359289;19;20098;-66
2023/07/28 08:18:16;;;;;;;1.17;0.15;;;;;;;19.84;85.08;100192.78;7364765;19;20014;-67
2023/07/28 08:20:43;;;;;;;0.80;0.13;;;;;;;19.88;85.01;100196.63;7360219;19;20098;-65
2023/07/28 08:23:10;;;;;;;1.17;0.10;;;;;;;19.91;84.84;100200.72;7360269;19;20026;-66
2023/07/28 08:25:37;;;;;;;0.20;0.10;;;;;;;19.94;84.86;100205.59;7359466;19;20044;-66
2023/07/28 08:28:05;;;;;;;0.32;0.10;;;;;;;19.98;84.91;100210.25;7364923;19;20384;-66
2023/07/28 08:30:32;;;;;;;1.65;0.10;;;;;;;20.03;85.52;100199.69;7357937;19;20134;-66
2023/07/28 08:32:59;;;;;;;0.45;0.20;;;;;;;20.05;85.62;100205.63;7364475;19;20031;-66
2023/07/28 08:35:26;;;;;;;0.60;0.10;;;;;;;20.08;85.88;100213.16;7361756;19;20060;-67
2023/07/28 08:37:53;;;;;;;0.70;0.10;;;;;;;20.13;86.03;100207.13;7359232;19;20014;-66
2023/07/28 08:40:20;;;;;;;1.20;0.10;;;;;;;20.19;85.86;100208.88;7358555;19;20446;-67
2023/07/28 08:42:49;;;;;;;0.57;0.10;;;;;;;20.20;85.31;100207.03;7363836;19;20025;-65
2023/07/28 08:45:18;;;;;;;2.40;0.20;;;;;;;20.21;85.01;100214.00;7360158;19;20026;-65
2023/07/28 08:47:46;;;;;;;0.57;0.22;;;;;;;20.23;85.58;100212.72;7360873;19;20025;-65
2023/07/28 08:50:13;;;;;;;0.38;0.10;;;;;;;20.28;86.31;100210.16;7361626;19;20036;-65
2023/07/28 08:52:40;;;;;;;2.70;0.10;;;;;;;20.34;85.64;100208.44;7361998;19;20114;-66
2023/07/28 08:55:07;;;;;;;0.47;0.10;;;;;;;20.34;84.57;100203.09;7355583;19;20127;-66
2023/07/28 08:57:34;;;;;;;0.50;0.20;;;;;;;20.33;84.70;100204.97;7363072;19;20026;-66
2023/07/28 09:00:10;;;;;;;1.35;0.40;;;;;;;20.37;85.05;100203.44;7361789;19;20415;-66
2023/07/28 09:02:37;;;;;;;0.57;0.20;;;;;;;20.38;84.54;100204.25;7357369;19;20401;-67
2023/07/28 09:05:07;;;;;;;1.05;0.10;;;;;;;20.42;84.62;100208.09;7360913;19;20014;-65
2023/07/28 09:07:36;;;;;;;1.27;0.20;;;;;;;20.46;85.22;100204.75;7361833;19;20581;-65
2023/07/28 09:10:04;;;;;;;0.73;0.10;;;;;;;20.49;84.97;100208.81;7356355;19;20018;-67
2023/07/28 09:12:32;;;;;;;1.05;0.20;;;;;;;20.51;84.82;100206.72;7363811;19;20556;-65
2023/07/28 09:14:59;;;;;;;0.28;0.10;;;;;;;20.52;84.58;100208.31;7359317;19;20034;-65
2023/07/28 09:17:26;;;;;;;0.88;0.20;;;;;;;20.56;85.33;100203.34;7359559;19;20114;-65
2023/07/28 09:19:55;;;;;;;0.98;0.10;;;;;;;20.57;85.12;100211.09;7359047;19;20025;-65
2023/07/28 09:22:23;;;;;;;0.30;0.10;;;;;;;20.60;85.74;100207.16;7362125;19;20038;-65
2023/07/28 09:24:51;;;;;;;1.10;0.13;;;;;;;20.61;85.23;100206.94;7358111;19;20545;-66
2023/07/28 09:27:25;;;;;;;1.00;0.10;;;;;;;20.60;84.54;100213.34;7359241;19;20022;-64
2023/07/28 09:29:54;;;;;;;0.88;0.20;;;;;;;20.60;84.38;100205.31;7357811;19;20019;-65
2023/07/28 09:32:36;;;;;;;0.80;0.10;;;;;;;20.62;85.00;100202.41;7361978;19;20022;-65
2023/07/28 09:35:14;;;;;;;2.20;0.32;;;;;;;20.62;85.13;100200.53;7359797;19;20110;-66
2023/07/28 09:37:45;;;;;;;0.95;0.20;;;;;;;20.64;85.52;100203.78;7359127;19;20011;-65
2023/07/28 09:40:14;;;;;;;0.10;0.00;;;;;;;20.63;84.83;100207.50;7353826;19;20023;-65
2023/07/28 09:42:44;;;;;;;1.10;0.10;;;;;;;20.64;84.83;100205.66;7360338;19;20014;-65
2023/07/28 09:45:11;;;;;;;0.38;0.10;;;;;;;20.62;84.74;100213.09;7357015;19;20011;-65
2023/07/28 09:48:02;;;;;;;0.20;0.10;;;;;;;20.59;85.01;100202.88;7361346;19;21252;-66
2023/07/28 09:50:32;;;;;;;0.40;0.10;;;;;;;20.62;84.62;100205.88;7357963;19;20014;-66
2023/07/28 09:53:02;;;;;;;0.20;0.10;;;;;;;20.61;84.80;100200.78;7359438;19;20030;-66
2023/07/28 09:55:30;;;;;;;0.82;0.20;;;;;;;20.62;84.77;100210.44;7356295;19;20046;-65
2023/07/28 09:58:01;;;;;;;0.40;0.10;;;;;;;20.61;84.29;100206.94;7360276;19;20018;-66
2023/07/28 10:00:29;;;;;;;0.50;0.10;;;;;;;20.61;83.75;100206.94;7357478;19;20487;-66
2023/07/28 10:02:58;;;;;;;0.30;0.00;;;;;;;20.66;84.18;100209.72;7357767;19;20025;-66
2023/07/28 10:05:26;;;;;;;90.03;42.95;;;;;;;20.71;84.12;100209.84;7355133;19;20183;-66
2023/07/28 10:07:56;;;;;;;14.90;5.88;;;;;;;20.76;84.13;100209.94;7361122;19;21066;-67
2023/07/28 10:10:23;;;;;;;0.85;0.10;;;;;;;20.76;82.66;100209.94;7354687;19;20513;-67
2023/07/28 10:12:52;;;;;;;0.10;0.08;;;;;;;20.79;81.63;100214.00;7361588;19;20019;-65
2023/07/28 10:15:21;;;;;;;1.42;0.10;;;;;;;20.78;81.34;100215.03;7354860;19;20091;-64
2023/07/28 10:17:52;;;;;;;0.50;0.10;;;;;;;20.80;81.52;100212.97;7358866;19;20030;-67
2023/07/28 10:20:34;;;;;;;0.93;0.13;;;;;;;20.80;81.27;100221.81;7356869;19;20653;-66
2023/07/28 10:23:07;;;;;;;0.50;0.20;;;;;;;20.81;81.41;100219.94;7360769;19;20652;-66
2023/07/28 10:25:36;;;;;;;0.25;0.10;;;;;;;20.79;81.72;100219.34;7354426;19;20019;-66
2023/07/28 10:28:04;;;;;;;0.40;0.10;;;;;;;20.80;81.80;100224.47;7360227;19;20015;-65
2023/07/28 10:30:37;;;;;;;1.08;0.20;;;;;;;20.84;81.79;100227.50;7355826;19;20014;-66
2023/07/28 10:33:04;;;;;;;1.55;0.10;;;;;;;20.86;82.03;100228.09;7357861;19;20019;-65
2023/07/28 10:35:33;;;;;;;1.75;0.17;;;;;;;20.89;82.21;100230.28;7356477;19;20022;-65
2023/07/28 10:38:39;;;;;;;1.90;0.20;;;;;;;20.94;82.79;100233.06;7358669;19;20129;-65
2023/07/28 10:41:09;;;;;;;2.67;0.20;;;;;;;20.93;82.62;100234.91;7352039;19;20026;-64
2023/07/28 10:43:39;;;;;;;0.40;0.20;;;;;;;20.92;82.23;100227.97;7353323;19;20019;-66
2023/07/28 10:46:10;;;;;;;3.45;0.20;;;;;;;20.92;82.64;100227.97;7354680;19;20019;-66
2023/07/28 10:48:48;;;;;;;1.35;0.25;;;;;;;20.93;82.56;100231.41;7357096;19;20022;-65
2023/07/28 10:51:24;;;;;;;0.40;0.10;;;;;;;20.90;81.36;100229.22;7360410;19;20018;-64
2023/07/28 10:53:55;;;;;;;3.60;0.10;;;;;;;20.87;81.12;100229.72;7356377;19;20006;-64
2023/07/28 10:56:26;;;;;;;0.50;0.10;;;;;;;20.86;81.47;100225.41;7365808;19;20014;-65
2023/07/28 10:58:58;;;;;;;3.40;0.82;;;;;;;20.88;81.73;100223.28;7365852;19;20022;-66
2023/07/28 11:01:32;;;;;;;0.20;0.10;;;;;;;20.88;81.59;100224.09;7366294;19;20024;-64
2023/07/28 11:04:13;;;;;;;0.38;0.10;;;;;;;20.88;81.95;100224.09;7355163;19;20019;-65
2023/07/28 11:06:43;;;;;;;0.65;0.20;;;;;;;20.91;81.97;100233.53;7357304;19;20427;-65
2023/07/28 11:09:12;;;;;;;0.68;0.10;;;;;;;20.91;81.40;100236.22;7357457;19;20021;-66
2023/07/28 11:11:39;;;;;;;0.60;0.10;;;;;;;20.89;81.86;100231.09;7367861;19;20038;-67
2023/07/28 11:14:11;;;;;;;0.80;0.20;;;;;;;20.88;81.92;100240.16;7361196;19;20022;-66
2023/07/28 11:16:41;;;;;;;0.52;0.20;;;;;;;20.87;81.65;100243.91;7364787;19;20030;-65
2023/07/28 11:19:11;;;;;;;0.95;0.13;;;;;;;20.89;82.56;100243.66;7362633;19;20015;-66
2023/07/28 11:21:39;;;;;;;2.53;0.10;;;;;;;20.90;82.67;100245.28;7364731;19;20086;-65
2023/07/28 11:24:10;;;;;;;1.55;0.10;;;;;;;20.88;82.73;100250.84;7358743;19;20002;-66
2023/07/28 11:26:39;;;;;;;0.43;0.20;;;;;;;20.87;82.96;100248.44;7366494;19;20029;-65
2023/07/28 11:29:07;;;;;;;0.93;0.10;;;;;;;20.88;83.41;100239.34;7364715;19;20015;-65
2023/07/28 11:31:34;;;;;;;0.70;0.15;;;;;;;20.92;83.97;100249.38;7365749;19;20038;-64
2023/07/28 11:34:02;;;;;;;0.75;0.10;;;;;;;20.95;83.51;100256.09;7361422;19;20036;-67
2023/07/28 11:36:41;;;;;;;0.63;0.10;;;;;;;20.96;83.22;100256.91;7361397;19;20119;-65